createdAt,value
2022-11-26T00:00:57.653Z,1.79
2022-11-26T00:03:24.139Z,1.89
2022-11-26T00:05:51.658Z,1.81
2022-11-26T00:08:24.713Z,1.82
2022-11-26T00:10:52.285Z,1.96
2022-11-26T00:13:21.372Z,1.75
2022-11-26T00:15:48.994Z,1.72
2022-11-26T00:18:16.034Z,1.54
2022-11-26T00:20:42.918Z,1.48
2022-11-26T00:23:17.723Z,1.49
2022-11-26T00:25:47.088Z,1.39
2022-11-26T00:28:28.511Z,1.32
2022-11-26T00:30:59.504Z,1.53
2022-11-26T00:33:27.028Z,2.49
2022-11-26T00:35:58.728Z,2.05
2022-11-26T00:38:25.431Z,1.70
2022-11-26T00:40:51.892Z,1.47
2022-11-26T00:43:18.897Z,1.35
2022-11-26T00:45:45.483Z,1.35
2022-11-26T00:48:12.042Z,1.39
2022-11-26T00:50:42.273Z,1.27
2022-11-26T00:53:12.126Z,1.26
2022-11-26T00:55:39.891Z,1.26
2022-11-26T00:58:07.317Z,1.16
2022-11-26T01:00:34.561Z,1.21
2022-11-26T01:03:01.224Z,1.34
2022-11-26T01:05:33.499Z,1.50
2022-11-26T01:08:01.139Z,1.35
2022-11-26T01:10:29.332Z,1.30
2022-11-26T01:12:56.367Z,1.33
2022-11-26T01:15:24.365Z,1.49
2022-11-26T01:17:51.555Z,1.40
2022-11-26T01:20:26.560Z,1.41
2022-11-26T01:22:53.985Z,1.40
2022-11-26T01:25:21.187Z,1.51
2022-11-26T01:27:47.986Z,1.55
2022-11-26T01:30:18.329Z,1.63
2022-11-26T01:32:44.872Z,1.48
2022-11-26T01:35:11.609Z,1.74
2022-11-26T01:37:38.103Z,1.56
2022-11-26T01:40:19.148Z,1.35
2022-11-26T01:42:49.519Z,1.37
2022-11-26T01:45:20.565Z,1.46
2022-11-26T01:47:49.986Z,1.36
2022-11-26T01:50:31.691Z,1.27
2022-11-26T01:53:03.560Z,1.47
2022-11-26T01:55:38.445Z,1.43
2022-11-26T01:58:06.504Z,1.58
2022-11-26T02:00:33.026Z,1.51
2022-11-26T02:03:00.047Z,1.54
2022-11-26T02:05:29.388Z,1.34
2022-11-26T02:07:57.079Z,1.44
2022-11-26T02:10:23.581Z,1.46
2022-11-26T02:12:50.637Z,1.29
2022-11-26T02:15:17.151Z,1.11
2022-11-26T02:17:51.354Z,1.07
2022-11-26T02:20:36.620Z,1.18
2022-11-26T02:23:06.032Z,0.90
2022-11-26T02:25:47.839Z,1.17
2022-11-26T02:28:32.865Z,1.12
2022-11-26T02:31:11.387Z,1.70
2022-11-26T02:33:45.185Z,1.25
2022-11-26T02:36:17.092Z,0.99
2022-11-26T02:38:44.166Z,0.97
2022-11-26T02:41:10.616Z,1.11
2022-11-26T02:43:38.326Z,1.03
2022-11-26T02:46:09.443Z,1.16
2022-11-26T02:48:38.812Z,1.27
2022-11-26T02:51:08.433Z,1.18
2022-11-26T02:53:35.813Z,1.31
2022-11-26T02:56:07.319Z,1.33
2022-11-26T02:58:34.648Z,1.45
2022-11-26T03:01:03.421Z,1.98
2022-11-26T03:03:33.657Z,1.76
2022-11-26T03:06:02.336Z,1.58
2022-11-26T03:08:29.471Z,1.41
2022-11-26T03:10:56.005Z,1.45
2022-11-26T03:13:22.430Z,1.48
2022-11-26T03:15:48.871Z,1.53
2022-11-26T03:18:15.350Z,1.63
2022-11-26T03:20:41.812Z,1.62
2022-11-26T03:23:08.227Z,1.71
2022-11-26T03:25:35.180Z,1.69
2022-11-26T03:28:02.432Z,1.89
2022-11-26T03:30:28.879Z,1.99
2022-11-26T03:32:55.923Z,1.89
2022-11-26T03:35:22.704Z,2.02
2022-11-26T03:37:49.444Z,1.99
2022-11-26T03:40:16.874Z,2.22
2022-11-26T03:42:43.807Z,2.12
2022-11-26T03:45:10.537Z,2.01
2022-11-26T03:47:37.210Z,1.97
2022-11-26T03:50:04.418Z,2.14
2022-11-26T03:52:30.835Z,2.32
2022-11-26T03:54:57.296Z,2.63
2022-11-26T03:57:23.772Z,2.39
2022-11-26T03:59:50.201Z,2.40
2022-11-26T04:02:16.811Z,2.56
2022-11-26T04:04:43.253Z,2.45
2022-11-26T04:07:09.753Z,2.40
2022-11-26T04:09:36.217Z,2.51
2022-11-26T04:12:02.664Z,2.59
2022-11-26T04:14:29.110Z,2.62
2022-11-26T04:16:55.697Z,2.50
2022-11-26T04:19:22.177Z,2.34
2022-11-26T04:21:48.652Z,2.35
2022-11-26T04:24:15.135Z,2.24
2022-11-26T04:26:41.583Z,2.35
2022-11-26T04:29:08.158Z,2.60
2022-11-26T04:31:34.689Z,2.63
2022-11-26T04:34:01.209Z,2.57
2022-11-26T04:36:27.679Z,2.61
2022-11-26T04:38:54.117Z,2.61
2022-11-26T04:41:20.557Z,2.70
2022-11-26T04:43:47.065Z,2.70
2022-11-26T04:46:13.536Z,2.72
2022-11-26T04:48:40.037Z,2.82
2022-11-26T04:51:06.493Z,2.76
2022-11-26T04:53:32.944Z,2.83
2022-11-26T04:55:59.386Z,2.86
2022-11-26T04:58:26.007Z,2.63
2022-11-26T05:00:52.713Z,2.54
2022-11-26T05:03:19.417Z,3.11
2022-11-26T05:05:47.068Z,2.97
2022-11-26T05:08:13.670Z,2.87
2022-11-26T05:10:40.080Z,2.87
2022-11-26T05:13:06.512Z,2.92
2022-11-26T05:15:32.929Z,3.07
2022-11-26T05:17:59.370Z,3.00
2022-11-26T05:20:25.874Z,3.15
2022-11-26T05:22:52.328Z,2.97
2022-11-26T05:25:18.827Z,2.87
2022-11-26T05:27:45.278Z,3.02
2022-11-26T05:30:12.048Z,2.91
2022-11-26T05:32:38.488Z,2.72
2022-11-26T05:35:05.041Z,2.82
2022-11-26T05:37:31.668Z,2.78
2022-11-26T05:39:58.113Z,2.79
2022-11-26T05:42:24.616Z,2.88
2022-11-26T05:44:51.108Z,2.71
2022-11-26T05:47:17.504Z,2.72
2022-11-26T05:49:43.914Z,2.72
2022-11-26T05:52:10.333Z,2.73
2022-11-26T05:54:37.018Z,2.68
2022-11-26T05:57:03.773Z,2.57
2022-11-26T05:59:30.401Z,2.63
2022-11-26T06:01:56.930Z,2.66
2022-11-26T06:04:23.661Z,2.85
2022-11-26T06:06:50.077Z,2.72
2022-11-26T06:09:16.548Z,2.65
2022-11-26T06:11:42.974Z,2.66
2022-11-26T06:14:10.502Z,2.63
2022-11-26T06:16:37.104Z,2.68
2022-11-26T06:19:03.695Z,3.35
2022-11-26T06:21:30.151Z,3.57
2022-11-26T06:23:59.548Z,3.33
2022-11-26T06:26:26.713Z,2.94
2022-11-26T06:28:53.201Z,2.82
2022-11-26T06:31:19.844Z,2.85
2022-11-26T06:33:46.593Z,2.96
2022-11-26T06:36:13.045Z,2.90
2022-11-26T06:38:39.471Z,3.16
2022-11-26T06:41:07.044Z,3.03
2022-11-26T06:43:33.812Z,3.07
2022-11-26T06:46:01.573Z,3.09
2022-11-26T06:48:28.070Z,3.11
2022-11-26T06:50:54.543Z,3.01
2022-11-26T06:53:20.971Z,3.02
2022-11-26T06:55:47.543Z,3.09
2022-11-26T06:58:14.871Z,3.19
2022-11-26T07:00:42.345Z,3.24
2022-11-26T07:03:09.084Z,3.55
2022-11-26T07:05:36.004Z,3.23
2022-11-26T07:08:02.481Z,3.29
2022-11-26T07:10:29.207Z,3.26
2022-11-26T07:12:55.769Z,3.36
2022-11-26T07:15:22.205Z,3.23
2022-11-26T07:17:48.615Z,3.37
2022-11-26T07:20:15.162Z,3.67
2022-11-26T07:22:41.633Z,3.66
2022-11-26T07:25:12.340Z,3.59
2022-11-26T07:27:39.420Z,3.56
2022-11-26T07:30:06.207Z,3.66
2022-11-26T07:32:32.671Z,3.83
2022-11-26T07:35:04.017Z,3.98
2022-11-26T07:37:31.996Z,3.81
2022-11-26T07:39:58.411Z,4.07
2022-11-26T07:42:25.009Z,3.92
2022-11-26T07:44:51.417Z,4.54
2022-11-26T07:47:17.917Z,4.04
2022-11-26T07:49:44.532Z,4.40
2022-11-26T07:52:10.961Z,4.39
2022-11-26T07:54:37.855Z,4.43
2022-11-26T07:57:04.463Z,4.47
2022-11-26T07:59:30.920Z,4.61
2022-11-26T08:01:57.490Z,4.55
2022-11-26T08:04:24.132Z,4.64
2022-11-26T08:06:50.685Z,4.18
2022-11-26T08:09:17.275Z,4.20
2022-11-26T08:11:43.751Z,4.70
2022-11-26T08:14:11.446Z,4.72
2022-11-26T08:16:37.937Z,4.91
2022-11-26T08:19:05.897Z,4.64
2022-11-26T08:21:32.612Z,4.70
2022-11-26T08:23:59.353Z,5.12
2022-11-26T08:26:35.044Z,5.46
2022-11-26T08:29:05.278Z,5.87
2022-11-26T08:31:31.870Z,5.81
2022-11-26T08:33:59.149Z,5.65
2022-11-26T08:36:26.444Z,5.79
2022-11-26T08:38:52.928Z,5.56
2022-11-26T08:41:19.468Z,5.38
2022-11-26T08:44:05.675Z,5.72
2022-11-26T08:46:32.418Z,5.83
2022-11-26T08:48:58.845Z,5.41
2022-11-26T08:51:25.680Z,5.69
2022-11-26T08:53:53.242Z,5.81
2022-11-26T08:56:19.768Z,6.02
2022-11-26T08:58:46.614Z,6.21
2022-11-26T09:01:20.060Z,6.53
2022-11-26T09:03:50.739Z,6.62
2022-11-26T09:06:17.923Z,6.60
2022-11-26T09:09:03.029Z,6.27
2022-11-26T09:11:29.545Z,6.73
2022-11-26T09:13:57.519Z,6.26
2022-11-26T09:16:24.431Z,7.04
2022-11-26T09:18:51.317Z,7.17
2022-11-26T09:21:18.052Z,6.93
2022-11-26T09:23:44.516Z,6.95
2022-11-26T09:26:11.137Z,7.26
2022-11-26T09:28:37.584Z,7.32
2022-11-26T09:31:04.103Z,7.92
2022-11-26T09:33:30.626Z,7.97
2022-11-26T09:36:04.857Z,7.93
2022-11-26T09:38:31.309Z,7.93
2022-11-26T09:40:57.701Z,8.15
2022-11-26T09:43:42.198Z,7.84
2022-11-26T09:46:10.664Z,8.10
2022-11-26T09:48:38.566Z,7.62
2022-11-26T09:51:10.544Z,8.19
2022-11-26T09:53:40.444Z,8.07
2022-11-26T09:56:11.421Z,9.08
2022-11-26T09:58:43.945Z,9.72
2022-11-26T10:01:14.143Z,9.02
2022-11-26T10:03:42.316Z,9.56
2022-11-26T10:06:19.973Z,9.78
2022-11-26T10:08:55.504Z,10.33
2022-11-26T10:11:28.789Z,10.27
2022-11-26T10:14:14.032Z,10.27
2022-11-26T10:16:40.627Z,10.29
2022-11-26T10:19:27.332Z,10.54
2022-11-26T10:21:59.100Z,10.60
2022-11-26T10:24:26.187Z,11.14
2022-11-26T10:26:53.277Z,11.62
2022-11-26T10:29:24.234Z,11.31
2022-11-26T10:31:53.379Z,11.42
2022-11-26T10:34:24.109Z,11.68
2022-11-26T10:36:51.278Z,12.09
2022-11-26T10:39:19.467Z,11.94
2022-11-26T10:41:46.476Z,12.50
2022-11-26T10:44:29.750Z,12.15
2022-11-26T10:46:56.941Z,13.34
2022-11-26T10:49:24.660Z,14.40
2022-11-26T10:51:54.558Z,13.64
2022-11-26T10:54:24.200Z,12.81
2022-11-26T10:56:53.287Z,13.16
2022-11-26T10:59:28.840Z,12.95
2022-11-26T11:02:00.857Z,13.37
2022-11-26T11:04:29.591Z,13.52
2022-11-26T11:06:56.633Z,13.62
2022-11-26T11:09:28.205Z,13.21
2022-11-26T11:12:13.417Z,15.25
2022-11-26T11:14:45.631Z,14.62
2022-11-26T11:17:39.774Z,14.37
2022-11-26T11:20:15.476Z,13.90
2022-11-26T11:22:42.790Z,13.81
2022-11-26T11:25:21.770Z,14.36
2022-11-26T11:27:49.129Z,14.71
2022-11-26T11:30:25.887Z,14.98
2022-11-26T11:32:55.122Z,13.50
2022-11-26T11:35:23.009Z,13.58
2022-11-26T11:37:51.128Z,13.80
2022-11-26T11:40:23.419Z,14.06
2022-11-26T11:42:51.739Z,13.17
2022-11-26T11:45:23.372Z,13.06
2022-11-26T11:47:57.114Z,13.36
2022-11-26T11:50:39.113Z,12.79
2022-11-26T11:53:24.078Z,12.79
2022-11-26T11:55:56.924Z,12.42
2022-11-26T11:58:41.132Z,12.16
2022-11-26T12:01:22.774Z,12.07
2022-11-26T12:04:05.151Z,11.90
2022-11-26T12:06:53.280Z,11.80
2022-11-26T12:09:26.021Z,11.83
2022-11-26T12:11:52.442Z,11.78
2022-11-26T12:14:28.762Z,11.37
2022-11-26T12:16:58.361Z,11.53
2022-11-26T12:19:29.394Z,11.41
2022-11-26T12:22:04.205Z,11.56
2022-11-26T12:24:46.064Z,11.85
2022-11-26T12:27:19.418Z,11.42
2022-11-26T12:29:53.641Z,11.11
2022-11-26T12:32:40.327Z,10.53
2022-11-26T12:35:12.204Z,10.31
2022-11-26T12:37:42.511Z,10.51
2022-11-26T12:40:27.756Z,11.36
2022-11-26T12:42:57.329Z,11.35
2022-11-26T12:45:26.807Z,11.41
2022-11-26T12:47:57.251Z,11.22
2022-11-26T12:50:38.269Z,11.14
2022-11-26T12:53:31.763Z,10.86
2022-11-26T12:56:01.022Z,10.79
2022-11-26T12:58:31.477Z,10.69
2022-11-26T13:00:58.628Z,10.71
2022-11-26T13:03:29.717Z,10.94
2022-11-26T13:05:56.265Z,10.59
2022-11-26T13:08:32.204Z,10.38
2022-11-26T13:11:11.837Z,10.45
2022-11-26T13:13:38.929Z,10.62
2022-11-26T13:16:20.253Z,10.58
2022-11-26T13:18:49.134Z,10.53
2022-11-26T13:21:22.058Z,10.27
2022-11-26T13:23:56.289Z,10.18
2022-11-26T13:26:33.155Z,10.08
2022-11-26T13:29:07.900Z,10.33
2022-11-26T13:31:43.903Z,10.28
2022-11-26T13:34:31.125Z,10.24
2022-11-26T13:37:07.028Z,10.12
2022-11-26T13:39:52.188Z,10.20
2022-11-26T13:42:33.980Z,10.50
2022-11-26T13:45:09.522Z,10.19
2022-11-26T13:47:48.205Z,9.96
2022-11-26T13:50:17.666Z,9.77
2022-11-26T13:52:54.040Z,9.70
2022-11-26T13:55:28.165Z,9.61
2022-11-26T13:57:58.353Z,9.41
2022-11-26T14:00:29.314Z,9.51
2022-11-26T14:02:56.568Z,9.58
2022-11-26T14:05:23.502Z,9.35
2022-11-26T14:07:50.270Z,9.38
2022-11-26T14:10:34.993Z,9.02
2022-11-26T14:13:04.327Z,9.80
2022-11-26T14:15:43.036Z,9.83
2022-11-26T14:18:10.653Z,9.68
2022-11-26T14:20:55.961Z,9.73
2022-11-26T14:23:40.774Z,10.01
2022-11-26T14:26:08.797Z,9.14
2022-11-26T14:28:35.275Z,8.71
2022-11-26T14:31:13.922Z,8.49
2022-11-26T14:33:44.926Z,8.25
2022-11-26T14:36:24.686Z,8.17
2022-11-26T14:39:23.736Z,7.96
2022-11-26T14:41:51.666Z,7.60
2022-11-26T14:44:18.631Z,7.85
2022-11-26T14:46:49.145Z,7.96
2022-11-26T14:49:31.061Z,7.74
2022-11-26T14:51:58.150Z,7.99
2022-11-26T14:54:33.305Z,7.91
2022-11-26T14:57:04.782Z,7.72
2022-11-26T14:59:31.344Z,7.77
2022-11-26T15:01:57.932Z,8.15
2022-11-26T15:04:29.044Z,7.89
2022-11-26T15:06:55.817Z,7.67
2022-11-26T15:09:26.964Z,7.58
2022-11-26T15:11:56.465Z,7.37
2022-11-26T15:14:26.391Z,7.39
2022-11-26T15:16:57.334Z,7.48
2022-11-26T15:19:24.280Z,7.36
2022-11-26T15:21:52.018Z,7.13
2022-11-26T15:24:18.859Z,7.11
2022-11-26T15:26:46.494Z,7.07
2022-11-26T15:29:31.669Z,6.99
2022-11-26T15:31:58.237Z,6.89
2022-11-26T15:34:25.701Z,6.80
2022-11-26T15:36:52.326Z,6.74
2022-11-26T15:39:24.525Z,6.66
2022-11-26T15:41:51.892Z,6.36
2022-11-26T15:44:21.385Z,6.28
2022-11-26T15:46:49.252Z,6.23
2022-11-26T15:49:20.935Z,6.22
2022-11-26T15:51:54.017Z,6.08
2022-11-26T15:54:43.342Z,6.18
2022-11-26T15:57:36.356Z,6.25
2022-11-26T16:00:08.416Z,6.21
2022-11-26T16:02:38.606Z,6.07
2022-11-26T16:05:05.337Z,6.06
2022-11-26T16:07:32.988Z,5.96
2022-11-26T16:10:21.967Z,5.88
2022-11-26T16:13:08.928Z,5.95
2022-11-26T16:15:35.925Z,5.92
2022-11-26T16:18:04.508Z,5.78
2022-11-26T16:20:30.984Z,5.67
2022-11-26T16:23:00.765Z,5.68
2022-11-26T16:25:27.160Z,5.68
2022-11-26T16:28:04.115Z,5.42
2022-11-26T16:30:30.655Z,5.44
2022-11-26T16:32:57.146Z,5.64
2022-11-26T16:35:44.738Z,5.46
2022-11-26T16:38:20.265Z,5.36
2022-11-26T16:40:46.819Z,5.29
2022-11-26T16:43:14.229Z,5.24
2022-11-26T16:45:40.892Z,5.75
2022-11-26T16:48:14.153Z,5.76
2022-11-26T16:50:40.617Z,5.31
2022-11-26T16:53:08.478Z,5.29
2022-11-26T16:55:34.920Z,5.15
2022-11-26T16:58:02.357Z,4.95
2022-11-26T17:00:28.850Z,4.79
2022-11-26T17:02:56.637Z,4.76
2022-11-26T17:05:24.619Z,4.68
2022-11-26T17:07:58.972Z,4.70
2022-11-26T17:10:28.392Z,4.59
2022-11-26T17:12:55.327Z,4.60
2022-11-26T17:15:22.630Z,4.55
2022-11-26T17:17:49.848Z,4.49
2022-11-26T17:20:17.946Z,4.44
2022-11-26T17:22:45.353Z,4.38
2022-11-26T17:25:12.552Z,4.21
2022-11-26T17:27:39.194Z,4.31
2022-11-26T17:30:06.671Z,4.39
2022-11-26T17:32:33.100Z,4.32
2022-11-26T17:34:59.658Z,4.28
2022-11-26T17:37:27.809Z,4.19
2022-11-26T17:39:54.857Z,4.12
2022-11-26T17:42:22.824Z,4.11
2022-11-26T17:44:54.447Z,4.15
2022-11-26T17:47:25.584Z,4.00
2022-11-26T17:49:52.607Z,3.88
2022-11-26T17:52:19.335Z,3.85
2022-11-26T17:54:46.158Z,3.81
2022-11-26T17:57:13.430Z,3.77
2022-11-26T17:59:40.239Z,3.75
2022-11-26T18:02:06.996Z,3.79
2022-11-26T18:04:33.504Z,3.83
2022-11-26T18:07:07.770Z,3.92
2022-11-26T18:09:34.689Z,3.96
2022-11-26T18:12:01.849Z,3.90
2022-11-26T18:14:28.536Z,4.06
2022-11-26T18:16:54.995Z,4.12
2022-11-26T18:19:22.440Z,4.14
2022-11-26T18:21:49.712Z,4.20
2022-11-26T18:24:16.238Z,3.94
2022-11-26T18:26:43.141Z,3.98
2022-11-26T18:29:10.383Z,3.85
2022-11-26T18:31:39.754Z,3.72
2022-11-26T18:34:07.071Z,3.71
2022-11-26T18:36:33.516Z,3.58
2022-11-26T18:38:59.954Z,3.51
2022-11-26T18:41:26.596Z,3.53
2022-11-26T18:43:53.073Z,3.64
2022-11-26T18:46:19.563Z,3.62
2022-11-26T18:48:46.939Z,3.45
2022-11-26T18:51:13.966Z,3.47
2022-11-26T18:53:40.587Z,3.37
2022-11-26T18:56:12.299Z,3.26
2022-11-26T18:58:39.128Z,3.25
2022-11-26T19:01:15.804Z,3.19
2022-11-26T19:03:43.997Z,3.07
2022-11-26T19:06:14.443Z,3.12
2022-11-26T19:08:40.889Z,3.22
2022-11-26T19:11:14.809Z,3.20
2022-11-26T19:13:41.385Z,3.25
2022-11-26T19:16:14.534Z,3.10
2022-11-26T19:18:43.031Z,3.18
2022-11-26T19:21:19.747Z,3.11
2022-11-26T19:23:46.722Z,3.05
2022-11-26T19:26:13.710Z,3.09
2022-11-26T19:28:40.410Z,3.17
2022-11-26T19:31:08.511Z,2.86
2022-11-26T19:33:35.096Z,3.02
2022-11-26T19:36:05.349Z,3.02
2022-11-26T19:38:31.994Z,2.85
2022-11-26T19:40:59.136Z,3.06
2022-11-26T19:43:26.660Z,3.01
2022-11-26T19:46:00.981Z,3.12
2022-11-26T19:48:27.542Z,3.60
2022-11-26T19:50:55.215Z,3.04
2022-11-26T19:53:22.015Z,2.57
2022-11-26T19:55:55.245Z,2.49
2022-11-26T19:58:21.704Z,2.58
2022-11-26T20:00:48.131Z,2.63
2022-11-26T20:03:14.688Z,2.60
2022-11-26T20:05:41.121Z,2.55
2022-11-26T20:08:08.065Z,2.70
2022-11-26T20:10:34.541Z,2.61
2022-11-26T20:13:01.108Z,2.69
2022-11-26T20:15:27.512Z,2.79
2022-11-26T20:17:53.950Z,2.63
2022-11-26T20:20:20.381Z,2.26
2022-11-26T20:22:46.829Z,2.25
2022-11-26T20:25:15.497Z,2.29
2022-11-26T20:27:43.509Z,2.01
2022-11-26T20:30:10.561Z,2.19
2022-11-26T20:32:37.484Z,2.09
2022-11-26T20:35:04.792Z,2.09
2022-11-26T20:37:31.585Z,2.15
2022-11-26T20:39:58.122Z,2.14
2022-11-26T20:42:24.569Z,2.11
2022-11-26T20:44:51.081Z,2.20
2022-11-26T20:47:17.529Z,2.09
2022-11-26T20:49:44.252Z,2.14
2022-11-26T20:52:11.210Z,2.03
2022-11-26T20:54:37.678Z,2.24
2022-11-26T20:57:05.946Z,2.08
2022-11-26T20:59:32.614Z,1.86
2022-11-26T21:01:59.097Z,1.96
2022-11-26T21:04:25.586Z,1.98
2022-11-26T21:06:52.013Z,1.84
2022-11-26T21:09:18.536Z,1.71
2022-11-26T21:11:45.012Z,1.80
2022-11-26T21:14:14.984Z,1.87
2022-11-26T21:16:41.949Z,2.05
2022-11-26T21:19:10.919Z,2.14
2022-11-26T21:21:37.574Z,1.92
2022-11-26T21:24:06.115Z,1.94
2022-11-26T21:26:32.975Z,1.95
2022-11-26T21:29:00.161Z,2.03
2022-11-26T21:31:28.218Z,2.07
2022-11-26T21:34:14.521Z,2.12
2022-11-26T21:36:43.053Z,2.15
2022-11-26T21:39:11.735Z,2.01
2022-11-26T21:41:38.233Z,1.86
2022-11-26T21:44:04.746Z,1.81
2022-11-26T21:46:37.567Z,1.73
2022-11-26T21:49:05.389Z,1.54
2022-11-26T21:51:31.885Z,1.75
2022-11-26T21:53:58.697Z,1.70
2022-11-26T21:56:29.522Z,1.75
2022-11-26T21:58:59.363Z,1.86
2022-11-26T22:01:25.906Z,1.83
2022-11-26T22:03:53.636Z,1.83
2022-11-26T22:06:21.175Z,1.80
2022-11-26T22:08:47.980Z,1.83
2022-11-26T22:11:15.589Z,1.87
2022-11-26T22:13:42.468Z,1.95
2022-11-26T22:16:10.297Z,1.90
2022-11-26T22:18:41.297Z,1.99
2022-11-26T22:21:10.452Z,1.91
2022-11-26T22:23:36.942Z,2.00
2022-11-26T22:26:04.080Z,1.82
2022-11-26T22:28:30.653Z,1.88
2022-11-26T22:30:57.180Z,1.86
2022-11-26T22:33:23.723Z,1.94
2022-11-26T22:35:50.150Z,2.07
2022-11-26T22:38:16.622Z,2.09
2022-11-26T22:40:43.036Z,1.98
2022-11-26T22:43:09.496Z,2.05
2022-11-26T22:45:36.971Z,2.03
2022-11-26T22:48:03.537Z,1.84
2022-11-26T22:50:29.944Z,1.89
2022-11-26T22:52:56.460Z,1.96
2022-11-26T22:55:23.353Z,2.16
2022-11-26T22:57:49.816Z,1.76
2022-11-26T23:00:36.419Z,1.71
2022-11-26T23:03:03.012Z,1.92
2022-11-26T23:05:29.512Z,1.88
2022-11-26T23:07:55.997Z,2.03
2022-11-26T23:10:22.451Z,1.85
2022-11-26T23:12:48.871Z,1.77
2022-11-26T23:15:15.292Z,1.68
2022-11-26T23:17:41.770Z,1.72
2022-11-26T23:20:08.364Z,1.78
2022-11-26T23:22:34.812Z,2.06
2022-11-26T23:25:01.260Z,1.96
2022-11-26T23:27:27.672Z,1.80
2022-11-26T23:29:54.221Z,1.64
2022-11-26T23:32:20.663Z,1.50
2022-11-26T23:34:50.172Z,1.47
2022-11-26T23:37:16.595Z,1.50
2022-11-26T23:39:43.081Z,1.29
2022-11-26T23:42:09.534Z,1.35
2022-11-26T23:44:36.121Z,1.33
2022-11-26T23:47:02.572Z,1.95
2022-11-26T23:49:29.051Z,1.59
2022-11-26T23:51:55.473Z,1.28
2022-11-26T23:54:21.950Z,1.07
2022-11-26T23:56:48.967Z,1.03
2022-11-26T23:59:15.432Z,0.94
